Latest Weather Observations for Rosslyn Bay Harbour

IDQ60801

Issued at 6:02 pm EST Sunday 26 April 2015 (issued every 30 minutes, with the page automatically refreshed every 10 minutes)

About weather observations | Map of weather stations | Latest weather observations for QLD | Other Formats
Station Details ID: 033208 Name: ROSSLYN BAY NTC AWS Lat: -23.16 Lon: 150.79 Height: 0.0 m
Data from the previous 72 hours. | See also: Recent months for locations in Queensland
Date/Time
EST
Temp
°C
App
Temp
°C
Dew
Point
Rel
Hum
%
Delta-T
°C
Wind Press
QNH
hPa
Press
MSL
hPa
Rain
since 9 am
mm
Dir
 
Spd
km/h
Gust
km/h
Spd
kts
Gust
kts
26/06:00pm 24.1 - - - - SSW 7 11 4 6 1013.9 1013.9 -
26/05:30pm 24.9 - - - - SSW 9 15 5 8 1013.4 1013.4 -
26/05:00pm 25.7 - - - - SSW 11 20 6 11 1012.8 1012.8 -
26/04:30pm 26.4 - - - - SSW 13 24 7 13 1012.4 1012.4 -
26/04:00pm 26.8 - - - - SSW 11 19 6 10 1012.2 1012.2 -
26/03:30pm 26.7 - - - - SW 13 20 7 11 1012.1 1012.1 -
26/03:00pm 26.5 - - - - SSW 15 22 8 12 1012.1 1012.1 -
26/02:30pm 26.3 - - - - SSW 13 26 7 14 1012.0 1012.0 -
26/02:00pm 26.3 - - - - SW 11 22 6 12 1011.9 1011.9 -
26/01:30pm 25.6 - - - - SSW 13 26 7 14 1012.2 1012.2 -
26/01:00pm 25.8 - - - - SSW 15 30 8 16 1012.3 1012.3 -
26/12:30pm 24.9 - - - - SW 13 24 7 13 1012.6 1012.6 -
26/12:00pm 24.1 - - - - SSW 13 22 7 12 1012.9 1012.9 -
26/11:30am 23.6 - - - - S 11 20 6 11 1013.4 1013.4 -
26/11:00am 23.0 - - - - SSW 13 26 7 14 1013.8 1013.8 -
26/10:30am 22.8 - - - - SSW 13 26 7 14 1014.1 1014.1 -
26/10:00am 22.3 - - - - SSW 15 24 8 13 1014.5 1014.5 -
26/09:30am 22.0 - - - - SSW 15 30 8 16 1014.7 1014.7 -
26/09:00am 21.5 - - - - S 13 22 7 12 1014.6 1014.6 -
26/08:30am 21.6 - - - - SSW 15 22 8 12 1014.4 1014.4 -
26/08:00am 21.3 - - - - SSW 11 19 6 10 1014.3 1014.3 -
26/07:30am 20.7 - - - - SSW 11 20 6 11 1013.9 1013.9 -
26/07:00am 20.2 - - - - SSW 6 11 3 6 1013.5 1013.5 -
26/06:30am 19.4 - - - - SSW 6 7 3 4 1013.1 1013.1 -
26/06:00am 19.6 - - - - W 6 7 3 4 1012.4 1012.4 -
26/05:30am 20.3 - - - - WSW 7 9 4 5 1012.0 1012.0 -
26/05:00am 21.6 - - - - SW 11 17 6 9 1011.6 1011.6 -
26/04:30am 21.9 - - - - SW 9 15 5 8 1011.3 1011.3 -
26/04:00am 21.9 - - - - SW 11 17 6 9 1011.1 1011.1 -
26/03:30am 22.3 - - - - SW 13 20 7 11 1010.9 1010.9 -
26/03:00am 22.3 - - - - WSW 13 20 7 11 1010.8 1010.8 -
26/02:30am 22.3 - - - - WSW 15 22 8 12 1010.6 1010.6 -
26/02:00am 22.1 - - - - WSW 13 20 7 11 1010.7 1010.7 -
26/01:30am 22.4 - - - - WSW 11 20 6 11 1010.9 1010.9 -
26/01:00am 22.3 - - - - WSW 9 17 5 9 1010.9 1010.9 -
26/12:30am 22.4 - - - - WNW 7 11 4 6 1010.9 1010.9 -
26/12:00am 22.4 - - - - NW 7 11 4 6 1011.0 1011.0 -
 
Date/Time
EST
Temp
°C
App
Temp
°C
Dew
Point
Rel
Hum
%
Delta-T
°C
Wind Press
QNH
hPa
Press
MSL
hPa
Rain
since 9 am
mm
Dir
 
Spd
km/h
Gust
km/h
Spd
kts
Gust
kts
25/11:30pm 22.3 - - - - SW 7 13 4 7 1011.0 1011.0 -
25/11:00pm 22.7 - - - - WSW 7 11 4 6 1011.3 1011.3 -
25/10:30pm 23.1 - - - - WSW 7 11 4 6 1011.4 1011.4 -
25/10:00pm 23.1 - - - - WSW 4 9 2 5 1011.3 1011.3 -
25/09:30pm 23.6 - - - - WSW 4 7 2 4 1011.4 1011.4 -
25/09:00pm 24.4 - - - - N 4 7 2 4 1011.2 1011.2 -
25/08:30pm 24.4 - - - - N 7 11 4 6 1011.3 1011.3 -
25/08:00pm 24.5 - - - - N 6 9 3 5 1011.0 1011.0 -
25/07:30pm 25.0 - - - - N 11 19 6 10 1010.6 1010.6 -
25/07:00pm 25.2 - - - - NNE 11 17 6 9 1010.1 1010.1 -
25/06:30pm 25.3 - - - - NNE 13 19 7 10 1009.6 1009.6 -
25/06:00pm 25.3 - - - - NNE 13 20 7 11 1009.2 1009.2 -
25/05:30pm 25.3 - - - - NNE 11 17 6 9 1009.1 1009.1 -
25/05:00pm 25.5 - - - - NNE 15 19 8 10 1008.8 1008.8 -
25/04:30pm 25.4 - - - - NE 9 17 5 9 1008.8 1008.8 -
25/04:00pm 25.3 - - - - NNE 11 17 6 9 1008.5 1008.5 -
25/03:30pm 25.2 - - - - NE 11 17 6 9 1008.6 1008.6 -
25/03:00pm 25.6 - - - - ENE 11 15 6 8 1008.5 1008.5 -
25/02:30pm 26.1 - - - - ENE 7 17 4 9 1008.5 1008.5 -
25/02:00pm 26.0 - - - - ENE 9 17 5 9 1008.7 1008.7 -
25/01:30pm 26.0 - - - - ENE 6 13 3 7 1009.0 1009.0 -
25/01:00pm 26.1 - - - - ENE 7 15 4 8 1009.3 1009.3 -
25/12:30pm 25.5 - - - - ENE 7 13 4 7 1009.6 1009.6 -
25/12:00pm 24.5 - - - - ENE 11 15 6 8 1010.0 1010.0 -
25/11:30am 24.4 - - - - NE 9 11 5 6 1010.5 1010.5 -
25/11:00am 24.3 - - - - NE 7 9 4 5 1011.0 1011.0 -
25/10:30am 23.9 - - - - NE 7 11 4 6 1011.3 1011.3 -
25/10:00am 23.8 - - - - NNE 7 9 4 5 1011.6 1011.6 -
25/09:30am 23.8 - - - - NNW 9 11 5 6 1011.6 1011.6 -
25/09:00am 23.2 - - - - NW 4 7 2 4 1011.7 1011.7 -
25/08:30am 22.3 - - - - NNW 2 6 1 3 1011.8 1011.8 -
25/08:00am 21.4 - - - - WNW 2 4 1 2 1011.5 1011.5 -
25/07:30am 20.3 - - - - WNW 4 6 2 3 1011.2 1011.2 -
25/07:00am 19.6 - - - - WNW 2 4 1 2 1011.0 1011.0 -
25/06:30am 19.4 - - - - W 2 4 1 2 1010.7 1010.7 -
25/06:00am 19.2 - - - - WSW 4 4 2 2 1010.4 1010.4 -
25/05:30am 19.8 - - - - W 2 4 1 2 1010.3 1010.3 -
25/05:00am 20.4 - - - - W 2 2 1 1 1010.1 1010.1 -
25/04:30am 19.8 - - - - SW 4 6 2 3 1010.0 1010.0 -
25/04:00am 19.7 - - - - SW 4 6 2 3 1009.7 1009.7 -
25/03:30am 19.8 - - - - SW 4 6 2 3 1009.9 1009.9 -
25/03:00am 20.6 - - - - W 4 7 2 4 1010.0 1010.0 -
25/02:30am 20.4 - - - - WNW 6 7 3 4 1009.9 1009.9 -
25/02:00am 21.0 - - - - SSW 2 4 1 2 1010.2 1010.2 -
25/01:30am 21.1 - - - - SSW 2 6 1 3 1010.1 1010.1 -
25/01:00am 21.2 - - - - SSW 2 4 1 2 1010.3 1010.3 -
25/12:30am 21.2 - - - - SW 2 6 1 3 1010.4 1010.4 -
25/12:00am 21.2 - - - - SW 4 6 2 3 1010.5 1010.5 -
 
Date/Time
EST
Temp
°C
App
Temp
°C
Dew
Point
Rel
Hum
%
Delta-T
°C
Wind Press
QNH
hPa
Press
MSL
hPa
Rain
since 9 am
mm
Dir
 
Spd
km/h
Gust
km/h
Spd
kts
Gust
kts
24/11:30pm 21.2 - - - - WSW 4 7 2 4 1010.4 1010.4 -
24/11:00pm 21.6 - - - - W 4 6 2 3 1010.5 1010.5 -
24/10:30pm 22.6 - - - - NW 6 11 3 6 1010.4 1010.4 -
24/10:00pm 23.0 - - - - NNW 9 11 5 6 1010.8 1010.8 -
24/09:30pm 23.1 - - - - N 7 13 4 7 1010.8 1010.8 -
24/09:00pm 23.2 - - - - N 7 11 4 6 1010.6 1010.6 -
24/08:30pm 23.4 - - - - N 7 13 4 7 1010.6 1010.6 -
24/08:00pm 23.5 - - - - N 7 13 4 7 1010.4 1010.4 -
24/07:30pm 23.6 - - - - N 11 15 6 8 1010.1 1010.1 -
24/07:00pm 23.9 - - - - N 11 15 6 8 1009.6 1009.6 -
24/06:30pm 24.1 - - - - N 13 19 7 10 1009.2 1009.2 -
24/06:00pm 24.4 - - - - N 17 22 9 12 1008.9 1008.9 -
24/05:30pm 24.5 - - - - NNE 17 20 9 11 1008.7 1008.7 -
24/05:00pm 24.6 - - - - NNE 15 20 8 11 1008.3 1008.3 -
24/04:30pm 24.6 - - - - NNE 11 17 6 9 1008.1 1008.1 -
24/04:00pm 24.7 - - - - NE 13 17 7 9 1007.9 1007.9 -
24/03:30pm 24.8 - - - - ENE 11 19 6 10 1007.8 1007.8 -
24/03:00pm 24.6 - - - - ENE 11 20 6 11 1008.0 1008.0 -
24/02:30pm 25.4 - - - - ENE 6 15 3 8 1008.1 1008.1 -
24/02:00pm 25.5 - - - - NNW 4 15 2 8 1008.4 1008.4 -
24/01:30pm 25.3 - - - - W 4 9 2 5 1008.7 1008.7 -
24/01:00pm 24.9 - - - - W 4 13 2 7 1008.9 1008.9 -
24/12:30pm 24.3 - - - - W 4 9 2 5 1009.5 1009.5 -
24/12:00pm 25.1 - - - - N 4 11 2 6 1010.1 1010.1 -
24/11:30am 24.4 - - - - SSW 2 7 1 4 1010.5 1010.5 -
24/11:00am 24.4 - - - - SW 2 11 1 6 1010.7 1010.7 -
24/10:30am 22.6 - - - - ENE 7 11 4 6 1011.2 1011.2 -
24/10:00am 24.2 - - - - NW 4 7 2 4 1011.6 1011.6 -
24/09:30am 22.6 - - - - NW 6 6 3 3 1011.6 1011.6 -
24/09:00am 21.4 - - - - WNW 6 9 3 5 1011.9 1011.9 -
24/08:30am 20.2 - - - - WSW 7 13 4 7 1012.0 1012.0 -
24/08:00am 19.7 - - - - WSW 9 13 5 7 1011.9 1011.9 -
24/07:30am 18.5 - - - - WSW 6 9 3 5 1011.4 1011.4 -
24/07:00am 17.4 - - - - W 6 9 3 5 1011.0 1011.0 -
24/06:30am 17.2 - - - - W 4 6 2 3 1010.6 1010.6 -
24/06:00am 17.2 - - - - WSW 6 7 3 4 1010.3 1010.3 -
24/05:30am 17.7 - - - - W 6 9 3 5 1010.3 1010.3 -
24/05:00am 18.3 - - - - WSW 6 7 3 4 1010.1 1010.1 -
24/04:30am 18.3 - - - - W 7 9 4 5 1010.1 1010.1 -
24/04:00am 17.8 - - - - W 6 9 3 5 1010.0 1010.0 -
24/03:30am 18.1 - - - - WSW 6 7 3 4 1010.0 1010.0 -
24/03:00am 19.2 - - - - W 4 7 2 4 1010.1 1010.1 -
24/02:30am 19.3 - - - - W 4 6 2 3 1010.4 1010.4 -
24/02:00am 19.1 - - - - W 2 6 1 3 1010.6 1010.6 -
24/01:30am 19.8 - - - - CALM 0 2 0 1 1010.6 1010.6 -
24/01:00am 19.3 - - - - WSW 2 4 1 2 1010.9 1010.9 -
24/12:30am 19.8 - - - - SW 2 4 1 2 1011.0 1011.0 -
24/12:00am 19.8 - - - - SSW 2 4 1 2 1011.2 1011.2 -
 
Date/Time
EST
Temp
°C
App
Temp
°C
Dew
Point
Rel
Hum
%
Delta-T
°C
Wind Press
QNH
hPa
Press
MSL
hPa
Rain
since 9 am
mm
Dir
 
Spd
km/h
Gust
km/h
Spd
kts
Gust
kts
23/11:30pm 20.4 - - - - SW 2 2 1 1 1011.4 1011.4 -
23/11:00pm 20.6 - - - - SW 2 4 1 2 1011.5 1011.5 -
23/10:30pm 20.4 - - - - WSW 4 7 2 4 1011.5 1011.5 -
23/10:00pm 20.1 - - - - WSW 4 6 2 3 1011.5 1011.5 -
23/09:30pm 20.3 - - - - WSW 4 6 2 3 1011.5 1011.5 -
23/09:00pm 22.8 - - - - NNE 6 9 3 5 1011.4 1011.4 -
23/08:30pm 22.8 - - - - NNE 7 13 4 7 1011.4 1011.4 -
23/08:00pm 22.8 - - - - ENE 9 13 5 7 1011.1 1011.1 -
23/07:30pm 22.8 - - - - ENE 6 13 3 7 1011.0 1011.0 -
23/07:00pm 22.8 - - - - NE 7 11 4 6 1010.6 1010.6 -
23/06:30pm 22.7 - - - - ENE 6 11 3 6 1010.0 1010.0 -

Other Formats:

Comma delimited format used in spreadsheet applications
http://www.bom.gov.au/fwo/IDQ60801/IDQ60801.95298.axf

JavaScript Object Notation format (JSON) in row-major order
http://www.bom.gov.au/fwo/IDQ60801/IDQ60801.95298.json